Shangzhi, China
Current Conditions -  °F | °C
As of 8:00 AM on Saturday 25 Oct 2014 (Local Time) from ZYHB Reporting Station
Haze Haze  
Wind Chill: 34°   Ceiling: Unl
Heat Index: 39°   Visibility: 1.2mi
Dew Point: 37°   Wind: 7mph
Humidity: 93%   Direction: 40°NE
Pressure: 29.83"   Gusts: NA
Location:  45.22°N, 127.97°E
Report Text: ZYHB 250000Z 04003MPS 2000 HZ NSC 04/03 Q1010 NOSIG
Loading
Personal Weather Stations






























Interactive Weather Map
Tropical Storm Tracking
New forecast layout! Learn more

10-Day Weather Forecast

Advertisements
Track Severe Weather on mobile